sensor_id;sensor_type;location;lat;lon;timestamp;temperature;humidity
13409;DHT22;6775;49.574;11.170;2022-11-15T00:01:06;7.20;99.90
13409;DHT22;6775;49.574;11.170;2022-11-15T00:03:34;7.10;99.90
13409;DHT22;6775;49.574;11.170;2022-11-15T00:06:03;7.20;99.90
13409;DHT22;6775;49.574;11.170;2022-11-15T00:08:31;7.20;99.90
13409;DHT22;6775;49.574;11.170;2022-11-15T00:11:01;7.20;99.90
13409;DHT22;6775;49.574;11.170;2022-11-15T00:17:50;7.10;99.90
13409;DHT22;6775;49.574;11.170;2022-11-15T00:20:18;7.10;99.90
13409;DHT22;6775;49.574;11.170;2022-11-15T00:22:46;7.10;99.90
13409;DHT22;6775;49.574;11.170;2022-11-15T00:25:13;7.00;99.90
13409;DHT22;6775;49.574;11.170;2022-11-15T00:27:41;7.00;99.90
13409;DHT22;6775;49.574;11.170;2022-11-15T00:30:10;7.00;99.90
13409;DHT22;6775;49.574;11.170;2022-11-15T00:32:39;7.00;99.90
13409;DHT22;6775;49.574;11.170;2022-11-15T00:35:08;7.00;99.90
13409;DHT22;6775;49.574;11.170;2022-11-15T00:37:36;7.00;99.90
13409;DHT22;6775;49.574;11.170;2022-11-15T00:40:04;7.00;99.90
13409;DHT22;6775;49.574;11.170;2022-11-15T00:42:32;7.00;99.90
13409;DHT22;6775;49.574;11.170;2022-11-15T00:45:00;7.00;99.90
13409;DHT22;6775;49.574;11.170;2022-11-15T00:47:28;7.00;99.90
13409;DHT22;6775;49.574;11.170;2022-11-15T00:49:56;6.90;99.90
13409;DHT22;6775;49.574;11.170;2022-11-15T00:52:25;6.90;99.90
13409;DHT22;6775;49.574;11.170;2022-11-15T00:54:53;6.90;99.90
13409;DHT22;6775;49.574;11.170;2022-11-15T00:57:21;6.80;99.90
13409;DHT22;6775;49.574;11.170;2022-11-15T00:59:48;6.80;99.90
13409;DHT22;6775;49.574;11.170;2022-11-15T01:02:16;6.70;99.90
13409;DHT22;6775;49.574;11.170;2022-11-15T01:04:44;6.70;99.90
13409;DHT22;6775;49.574;11.170;2022-11-15T01:07:12;6.70;99.90
13409;DHT22;6775;49.574;11.170;2022-11-15T01:09:41;6.70;99.90
13409;DHT22;6775;49.574;11.170;2022-11-15T01:12:09;6.60;99.90
13409;DHT22;6775;49.574;11.170;2022-11-15T01:14:36;6.60;99.90
13409;DHT22;6775;49.574;11.170;2022-11-15T01:17:04;6.50;99.90
13409;DHT22;6775;49.574;11.170;2022-11-15T01:19:35;6.40;99.90
13409;DHT22;6775;49.574;11.170;2022-11-15T01:22:03;6.40;99.90
13409;DHT22;6775;49.574;11.170;2022-11-15T01:24:31;6.40;99.90
13409;DHT22;6775;49.574;11.170;2022-11-15T01:27:00;6.30;99.90
13409;DHT22;6775;49.574;11.170;2022-11-15T01:29:27;6.40;99.90
13409;DHT22;6775;49.574;11.170;2022-11-15T01:31:55;6.40;99.90
13409;DHT22;6775;49.574;11.170;2022-11-15T01:34:23;6.40;99.90
13409;DHT22;6775;49.574;11.170;2022-11-15T01:36:51;6.40;99.90
13409;DHT22;6775;49.574;11.170;2022-11-15T01:39:19;6.30;99.90
13409;DHT22;6775;49.574;11.170;2022-11-15T01:41:46;6.20;99.90
13409;DHT22;6775;49.574;11.170;2022-11-15T01:44:39;6.10;99.90
13409;DHT22;6775;49.574;11.170;2022-11-15T01:47:10;6.00;99.90
13409;DHT22;6775;49.574;11.170;2022-11-15T01:49:46;6.00;99.90
13409;DHT22;6775;49.574;11.170;2022-11-15T01:52:19;5.90;99.90
13409;DHT22;6775;49.574;11.170;2022-11-15T01:54:51;5.80;99.90
13409;DHT22;6775;49.574;11.170;2022-11-15T01:57:20;5.70;99.90
13409;DHT22;6775;49.574;11.170;2022-11-15T01:59:49;5.70;99.90
13409;DHT22;6775;49.574;11.170;2022-11-15T02:02:18;5.60;99.90
13409;DHT22;6775;49.574;11.170;2022-11-15T02:04:46;5.60;99.90
13409;DHT22;6775;49.574;11.170;2022-11-15T02:07:16;5.60;99.90
13409;DHT22;6775;49.574;11.170;2022-11-15T02:09:45;5.60;99.90
13409;DHT22;6775;49.574;11.170;2022-11-15T02:12:16;5.60;99.90
13409;DHT22;6775;49.574;11.170;2022-11-15T02:14:50;5.60;99.90
13409;DHT22;6775;49.574;11.170;2022-11-15T02:17:28;5.70;99.90
13409;DHT22;6775;49.574;11.170;2022-11-15T02:20:35;5.70;99.90
13409;DHT22;6775;49.574;11.170;2022-11-15T02:23:47;5.80;99.90
13409;DHT22;6775;49.574;11.170;2022-11-15T02:26:47;5.80;99.90
13409;DHT22;6775;49.574;11.170;2022-11-15T02:29:26;5.80;99.90
13409;DHT22;6775;49.574;11.170;2022-11-15T02:32:07;5.90;99.90
13409;DHT22;6775;49.574;11.170;2022-11-15T02:34:48;5.90;99.90
13409;DHT22;6775;49.574;11.170;2022-11-15T02:37:23;6.00;99.90
13409;DHT22;6775;49.574;11.170;2022-11-15T02:40:04;6.10;99.90
13409;DHT22;6775;49.574;11.170;2022-11-15T02:42:36;6.20;99.90
13409;DHT22;6775;49.574;11.170;2022-11-15T02:45:35;6.10;99.90
13409;DHT22;6775;49.574;11.170;2022-11-15T02:48:06;6.10;99.90
13409;DHT22;6775;49.574;11.170;2022-11-15T02:50:34;6.00;99.90
13409;DHT22;6775;49.574;11.170;2022-11-15T02:53:03;6.00;99.90
13409;DHT22;6775;49.574;11.170;2022-11-15T02:55:32;6.00;99.90
13409;DHT22;6775;49.574;11.170;2022-11-15T02:58:20;5.90;99.90
13409;DHT22;6775;49.574;11.170;2022-11-15T03:00:55;5.80;99.90
13409;DHT22;6775;49.574;11.170;2022-11-15T03:03:42;5.80;99.90
13409;DHT22;6775;49.574;11.170;2022-11-15T03:06:22;5.80;99.90
13409;DHT22;6775;49.574;11.170;2022-11-15T03:09:01;5.80;99.90
13409;DHT22;6775;49.574;11.170;2022-11-15T03:11:34;5.80;99.90
13409;DHT22;6775;49.574;11.170;2022-11-15T03:14:10;5.90;99.90
13409;DHT22;6775;49.574;11.170;2022-11-15T03:16:43;5.90;99.90
13409;DHT22;6775;49.574;11.170;2022-11-15T03:19:22;5.90;99.90
13409;DHT22;6775;49.574;11.170;2022-11-15T03:21:54;5.80;99.90
13409;DHT22;6775;49.574;11.170;2022-11-15T03:24:25;5.80;99.90
13409;DHT22;6775;49.574;11.170;2022-11-15T03:26:55;5.70;99.90
13409;DHT22;6775;49.574;11.170;2022-11-15T03:29:27;5.60;99.90
13409;DHT22;6775;49.574;11.170;2022-11-15T03:31:59;5.60;99.90
13409;DHT22;6775;49.574;11.170;2022-11-15T03:34:34;5.60;99.90
13409;DHT22;6775;49.574;11.170;2022-11-15T03:37:03;5.50;99.90
13409;DHT22;6775;49.574;11.170;2022-11-15T03:39:31;5.50;99.90
13409;DHT22;6775;49.574;11.170;2022-11-15T03:42:08;5.40;99.90
13409;DHT22;6775;49.574;11.170;2022-11-15T03:44:45;5.40;99.90
13409;DHT22;6775;49.574;11.170;2022-11-15T03:47:16;5.40;99.90
13409;DHT22;6775;49.574;11.170;2022-11-15T03:49:49;5.40;99.90
13409;DHT22;6775;49.574;11.170;2022-11-15T03:52:19;5.30;99.90
13409;DHT22;6775;49.574;11.170;2022-11-15T03:54:51;5.30;99.90
13409;DHT22;6775;49.574;11.170;2022-11-15T03:57:20;5.30;99.90
13409;DHT22;6775;49.574;11.170;2022-11-15T03:59:48;5.30;99.90
13409;DHT22;6775;49.574;11.170;2022-11-15T04:02:16;5.30;99.90
13409;DHT22;6775;49.574;11.170;2022-11-15T04:04:43;5.30;99.90
13409;DHT22;6775;49.574;11.170;2022-11-15T04:07:13;5.30;99.90
13409;DHT22;6775;49.574;11.170;2022-11-15T04:09:41;5.30;99.90
13409;DHT22;6775;49.574;11.170;2022-11-15T04:12:23;5.20;99.90
13409;DHT22;6775;49.574;11.170;2022-11-15T04:14:58;5.20;99.90
13409;DHT22;6775;49.574;11.170;2022-11-15T04:17:37;5.20;99.90
13409;DHT22;6775;49.574;11.170;2022-11-15T04:20:08;5.20;99.90
13409;DHT22;6775;49.574;11.170;2022-11-15T04:22:57;5.10;99.90
13409;DHT22;6775;49.574;11.170;2022-11-15T04:25:44;5.10;99.90
13409;DHT22;6775;49.574;11.170;2022-11-15T04:28:12;4.90;99.90
13409;DHT22;6775;49.574;11.170;2022-11-15T04:30:40;5.00;99.90
13409;DHT22;6775;49.574;11.170;2022-11-15T04:33:08;5.00;99.90
13409;DHT22;6775;49.574;11.170;2022-11-15T04:35:35;5.00;99.90
13409;DHT22;6775;49.574;11.170;2022-11-15T04:38:06;5.00;99.90
13409;DHT22;6775;49.574;11.170;2022-11-15T04:40:34;5.00;99.90
13409;DHT22;6775;49.574;11.170;2022-11-15T04:43:03;5.00;99.90
13409;DHT22;6775;49.574;11.170;2022-11-15T04:45:31;5.00;99.90
13409;DHT22;6775;49.574;11.170;2022-11-15T04:47:59;5.00;99.90
13409;DHT22;6775;49.574;11.170;2022-11-15T04:50:26;5.00;99.90
13409;DHT22;6775;49.574;11.170;2022-11-15T04:52:54;4.90;99.90
13409;DHT22;6775;49.574;11.170;2022-11-15T04:55:24;4.90;99.90
13409;DHT22;6775;49.574;11.170;2022-11-15T04:57:58;4.80;99.90
13409;DHT22;6775;49.574;11.170;2022-11-15T05:00:28;4.70;99.90
13409;DHT22;6775;49.574;11.170;2022-11-15T05:02:56;4.60;99.90
13409;DHT22;6775;49.574;11.170;2022-11-15T05:05:42;4.50;99.90
13409;DHT22;6775;49.574;11.170;2022-11-15T05:08:10;4.50;99.90
13409;DHT22;6775;49.574;11.170;2022-11-15T05:10:39;4.40;99.90
13409;DHT22;6775;49.574;11.170;2022-11-15T05:13:07;4.40;99.90
13409;DHT22;6775;49.574;11.170;2022-11-15T05:15:35;4.40;99.90
13409;DHT22;6775;49.574;11.170;2022-11-15T05:18:03;4.40;99.90
13409;DHT22;6775;49.574;11.170;2022-11-15T05:20:31;4.30;99.90
13409;DHT22;6775;49.574;11.170;2022-11-15T05:22:59;4.30;99.90
13409;DHT22;6775;49.574;11.170;2022-11-15T05:25:27;4.30;99.90
13409;DHT22;6775;49.574;11.170;2022-11-15T05:27:56;4.20;99.90
13409;DHT22;6775;49.574;11.170;2022-11-15T05:30:24;4.10;99.90
13409;DHT22;6775;49.574;11.170;2022-11-15T05:32:53;4.00;99.90
13409;DHT22;6775;49.574;11.170;2022-11-15T05:35:29;4.00;99.90
13409;DHT22;6775;49.574;11.170;2022-11-15T05:37:57;4.00;99.90
13409;DHT22;6775;49.574;11.170;2022-11-15T05:40:25;4.00;99.90
13409;DHT22;6775;49.574;11.170;2022-11-15T05:42:55;4.00;99.90
13409;DHT22;6775;49.574;11.170;2022-11-15T05:45:23;3.90;99.90
13409;DHT22;6775;49.574;11.170;2022-11-15T05:47:54;3.90;99.90
13409;DHT22;6775;49.574;11.170;2022-11-15T05:50:24;3.80;99.90
13409;DHT22;6775;49.574;11.170;2022-11-15T05:52:54;3.90;99.90
13409;DHT22;6775;49.574;11.170;2022-11-15T05:55:29;4.00;99.90
13409;DHT22;6775;49.574;11.170;2022-11-15T05:57:59;4.10;99.90
13409;DHT22;6775;49.574;11.170;2022-11-15T06:00:28;4.20;99.90
13409;DHT22;6775;49.574;11.170;2022-11-15T06:02:56;4.30;99.90
13409;DHT22;6775;49.574;11.170;2022-11-15T06:05:24;4.20;99.90
13409;DHT22;6775;49.574;11.170;2022-11-15T06:07:52;4.20;99.90
13409;DHT22;6775;49.574;11.170;2022-11-15T06:10:19;4.20;99.90
13409;DHT22;6775;49.574;11.170;2022-11-15T06:12:57;4.10;99.90
13409;DHT22;6775;49.574;11.170;2022-11-15T06:15:25;4.30;99.90
13409;DHT22;6775;49.574;11.170;2022-11-15T06:17:56;4.40;99.90
13409;DHT22;6775;49.574;11.170;2022-11-15T06:20:25;4.40;99.90
13409;DHT22;6775;49.574;11.170;2022-11-15T06:22:56;4.40;99.90
13409;DHT22;6775;49.574;11.170;2022-11-15T06:25:25;4.40;99.90
13409;DHT22;6775;49.574;11.170;2022-11-15T06:27:53;4.40;99.90
13409;DHT22;6775;49.574;11.170;2022-11-15T06:30:23;4.40;99.90
13409;DHT22;6775;49.574;11.170;2022-11-15T06:32:52;4.40;99.90
13409;DHT22;6775;49.574;11.170;2022-11-15T06:35:25;4.40;99.90
13409;DHT22;6775;49.574;11.170;2022-11-15T06:37:53;4.30;99.90
13409;DHT22;6775;49.574;11.170;2022-11-15T06:40:21;4.40;99.90
13409;DHT22;6775;49.574;11.170;2022-11-15T06:42:49;4.40;99.90
13409;DHT22;6775;49.574;11.170;2022-11-15T06:45:17;4.50;99.90
13409;DHT22;6775;49.574;11.170;2022-11-15T06:47:46;4.60;99.90
13409;DHT22;6775;49.574;11.170;2022-11-15T06:50:15;4.70;99.90
13409;DHT22;6775;49.574;11.170;2022-11-15T06:52:42;4.70;99.90
13409;DHT22;6775;49.574;11.170;2022-11-15T06:55:10;4.70;99.90
13409;DHT22;6775;49.574;11.170;2022-11-15T06:57:46;4.80;99.90
13409;DHT22;6775;49.574;11.170;2022-11-15T07:00:15;4.90;99.90
13409;DHT22;6775;49.574;11.170;2022-11-15T07:02:44;5.10;99.90
13409;DHT22;6775;49.574;11.170;2022-11-15T07:05:14;5.40;99.90
13409;DHT22;6775;49.574;11.170;2022-11-15T07:07:42;5.80;99.90
13409;DHT22;6775;49.574;11.170;2022-11-15T07:10:10;6.20;99.90
13409;DHT22;6775;49.574;11.170;2022-11-15T07:12:38;6.40;99.90
13409;DHT22;6775;49.574;11.170;2022-11-15T07:15:07;6.90;99.90
13409;DHT22;6775;49.574;11.170;2022-11-15T07:17:35;7.40;99.90
13409;DHT22;6775;49.574;11.170;2022-11-15T07:20:03;7.50;99.90
13409;DHT22;6775;49.574;11.170;2022-11-15T07:22:33;7.50;99.90
13409;DHT22;6775;49.574;11.170;2022-11-15T07:25:00;7.40;99.90
13409;DHT22;6775;49.574;11.170;2022-11-15T07:27:29;7.40;99.90
13409;DHT22;6775;49.574;11.170;2022-11-15T07:29:57;7.50;99.90
13409;DHT22;6775;49.574;11.170;2022-11-15T07:32:25;7.70;99.90
13409;DHT22;6775;49.574;11.170;2022-11-15T07:34:53;7.80;99.90
13409;DHT22;6775;49.574;11.170;2022-11-15T07:37:21;7.80;99.90
13409;DHT22;6775;49.574;11.170;2022-11-15T07:39:50;7.80;99.90
13409;DHT22;6775;49.574;11.170;2022-11-15T07:42:18;7.90;99.90
13409;DHT22;6775;49.574;11.170;2022-11-15T07:45:04;8.00;99.90
13409;DHT22;6775;49.574;11.170;2022-11-15T07:51:57;8.70;99.90
13409;DHT22;6775;49.574;11.170;2022-11-15T07:54:24;10.90;99.90
13409;DHT22;6775;49.574;11.170;2022-11-15T07:56:54;12.00;99.90
13409;DHT22;6775;49.574;11.170;2022-11-15T07:59:22;13.90;99.90
13409;DHT22;6775;49.574;11.170;2022-11-15T08:01:49;16.10;99.90
13409;DHT22;6775;49.574;11.170;2022-11-15T08:04:18;18.30;97.60
13409;DHT22;6775;49.574;11.170;2022-11-15T08:06:46;20.00;92.60
13409;DHT22;6775;49.574;11.170;2022-11-15T08:09:14;21.70;86.30
13409;DHT22;6775;49.574;11.170;2022-11-15T08:11:41;23.30;76.80
13409;DHT22;6775;49.574;11.170;2022-11-15T08:14:11;24.80;69.70
13409;DHT22;6775;49.574;11.170;2022-11-15T08:16:39;26.40;62.80
13409;DHT22;6775;49.574;11.170;2022-11-15T08:19:07;27.80;57.10
13409;DHT22;6775;49.574;11.170;2022-11-15T08:21:35;28.90;52.80
13409;DHT22;6775;49.574;11.170;2022-11-15T08:24:04;29.80;50.20
13409;DHT22;6775;49.574;11.170;2022-11-15T08:26:32;30.60;47.80
13409;DHT22;6775;49.574;11.170;2022-11-15T08:29:00;31.40;45.50
13409;DHT22;6775;49.574;11.170;2022-11-15T08:31:29;32.00;43.70
13409;DHT22;6775;49.574;11.170;2022-11-15T08:33:57;32.50;42.10
13409;DHT22;6775;49.574;11.170;2022-11-15T08:36:25;32.80;41.10
13409;DHT22;6775;49.574;11.170;2022-11-15T08:39:02;33.30;40.00
13409;DHT22;6775;49.574;11.170;2022-11-15T08:41:34;33.50;38.80
13409;DHT22;6775;49.574;11.170;2022-11-15T08:44:04;33.70;38.60
13409;DHT22;6775;49.574;11.170;2022-11-15T08:46:33;33.90;38.00
13409;DHT22;6775;49.574;11.170;2022-11-15T08:49:02;34.30;37.30
13409;DHT22;6775;49.574;11.170;2022-11-15T08:51:30;34.80;36.50
13409;DHT22;6775;49.574;11.170;2022-11-15T08:53:58;35.00;35.30
13409;DHT22;6775;49.574;11.170;2022-11-15T08:56:26;35.00;34.90
13409;DHT22;6775;49.574;11.170;2022-11-15T08:58:54;34.70;35.20
13409;DHT22;6775;49.574;11.170;2022-11-15T09:01:22;34.80;35.10
13409;DHT22;6775;49.574;11.170;2022-11-15T09:03:51;34.80;34.10
13409;DHT22;6775;49.574;11.170;2022-11-15T09:06:20;32.80;35.60
13409;DHT22;6775;49.574;11.170;2022-11-15T09:08:48;29.10;40.20
13409;DHT22;6775;49.574;11.170;2022-11-15T09:11:16;25.40;45.50
13409;DHT22;6775;49.574;11.170;2022-11-15T09:13:46;22.40;50.60
13409;DHT22;6775;49.574;11.170;2022-11-15T09:16:14;19.80;55.20
13409;DHT22;6775;49.574;11.170;2022-11-15T09:18:42;17.90;59.50
13409;DHT22;6775;49.574;11.170;2022-11-15T09:21:12;16.50;63.30
13409;DHT22;6775;49.574;11.170;2022-11-15T09:23:40;15.60;68.20
13409;DHT22;6775;49.574;11.170;2022-11-15T09:26:08;14.80;72.50
13409;DHT22;6775;49.574;11.170;2022-11-15T09:28:36;14.20;75.10
13409;DHT22;6775;49.574;11.170;2022-11-15T09:31:05;13.90;78.80
13409;DHT22;6775;49.574;11.170;2022-11-15T09:33:33;13.70;81.00
13409;DHT22;6775;49.574;11.170;2022-11-15T09:36:02;13.70;83.60
13409;DHT22;6775;49.574;11.170;2022-11-15T09:38:33;13.70;87.50
13409;DHT22;6775;49.574;11.170;2022-11-15T09:41:31;13.70;89.80
13409;DHT22;6775;49.574;11.170;2022-11-15T09:44:13;13.80;91.00
13409;DHT22;6775;49.574;11.170;2022-11-15T09:46:59;14.40;91.20
13409;DHT22;6775;49.574;11.170;2022-11-15T09:49:31;15.30;90.40
13409;DHT22;6775;49.574;11.170;2022-11-15T09:51:59;16.50;86.50
13409;DHT22;6775;49.574;11.170;2022-11-15T09:54:31;18.20;81.30
13409;DHT22;6775;49.574;11.170;2022-11-15T09:57:23;20.00;73.80
13409;DHT22;6775;49.574;11.170;2022-11-15T10:00:03;22.20;66.80
13409;DHT22;6775;49.574;11.170;2022-11-15T10:03:03;23.70;61.70
13409;DHT22;6775;49.574;11.170;2022-11-15T10:05:36;25.00;57.00
13409;DHT22;6775;49.574;11.170;2022-11-15T10:08:13;26.00;54.70
13409;DHT22;6775;49.574;11.170;2022-11-15T10:10:47;27.00;52.30
13409;DHT22;6775;49.574;11.170;2022-11-15T10:13:39;28.00;50.10
13409;DHT22;6775;49.574;11.170;2022-11-15T10:16:14;29.10;47.00
13409;DHT22;6775;49.574;11.170;2022-11-15T10:23:00;30.90;44.20
13409;DHT22;6775;49.574;11.170;2022-11-15T10:25:30;32.00;41.60
13409;DHT22;6775;49.574;11.170;2022-11-15T10:28:06;32.40;39.90
13409;DHT22;6775;49.574;11.170;2022-11-15T10:30:39;32.60;39.60
13409;DHT22;6775;49.574;11.170;2022-11-15T10:33:30;33.30;39.30
13409;DHT22;6775;49.574;11.170;2022-11-15T10:36:18;33.70;37.40
13409;DHT22;6775;49.574;11.170;2022-11-15T10:38:57;33.30;37.80
13409;DHT22;6775;49.574;11.170;2022-11-15T10:41:35;33.30;37.80
13409;DHT22;6775;49.574;11.170;2022-11-15T10:44:19;33.50;37.30
13409;DHT22;6775;49.574;11.170;2022-11-15T10:46:48;33.70;37.10
13409;DHT22;6775;49.574;11.170;2022-11-15T10:49:32;33.80;36.80
13409;DHT22;6775;49.574;11.170;2022-11-15T10:52:02;34.30;36.70
13409;DHT22;6775;49.574;11.170;2022-11-15T10:54:34;34.20;35.30
13409;DHT22;6775;49.574;11.170;2022-11-15T10:57:07;32.30;37.20
13409;DHT22;6775;49.574;11.170;2022-11-15T10:59:37;29.10;41.90
13409;DHT22;6775;49.574;11.170;2022-11-15T11:02:26;26.00;46.10
13409;DHT22;6775;49.574;11.170;2022-11-15T11:04:56;23.20;51.00
13409;DHT22;6775;49.574;11.170;2022-11-15T11:07:26;22.00;53.70
13409;DHT22;6775;49.574;11.170;2022-11-15T11:09:58;22.90;53.40
13409;DHT22;6775;49.574;11.170;2022-11-15T11:12:29;24.80;50.40
13409;DHT22;6775;49.574;11.170;2022-11-15T11:15:01;26.80;47.00
13409;DHT22;6775;49.574;11.170;2022-11-15T11:17:38;28.60;44.60
13409;DHT22;6775;49.574;11.170;2022-11-15T11:20:12;30.30;43.20
13409;DHT22;6775;49.574;11.170;2022-11-15T11:23:02;31.40;40.90
13409;DHT22;6775;49.574;11.170;2022-11-15T11:25:34;32.00;39.60
13409;DHT22;6775;49.574;11.170;2022-11-15T11:28:14;32.50;39.60
13409;DHT22;6775;49.574;11.170;2022-11-15T11:30:53;33.00;38.60
13409;DHT22;6775;49.574;11.170;2022-11-15T11:33:30;32.80;36.20
13409;DHT22;6775;49.574;11.170;2022-11-15T11:36:11;32.70;36.00
13409;DHT22;6775;49.574;11.170;2022-11-15T11:38:49;32.60;37.70
13409;DHT22;6775;49.574;11.170;2022-11-15T11:41:34;32.60;36.00
13409;DHT22;6775;49.574;11.170;2022-11-15T11:44:18;31.70;37.20
13409;DHT22;6775;49.574;11.170;2022-11-15T11:46:55;30.70;38.20
13409;DHT22;6775;49.574;11.170;2022-11-15T11:49:30;29.50;39.50
13409;DHT22;6775;49.574;11.170;2022-11-15T11:52:02;28.90;40.70
13409;DHT22;6775;49.574;11.170;2022-11-15T11:54:39;28.80;41.40
13409;DHT22;6775;49.574;11.170;2022-11-15T11:57:17;28.20;41.20
13409;DHT22;6775;49.574;11.170;2022-11-15T11:59:53;27.20;43.20
13409;DHT22;6775;49.574;11.170;2022-11-15T12:02:29;26.60;44.90
13409;DHT22;6775;49.574;11.170;2022-11-15T12:05:07;26.30;43.90
13409;DHT22;6775;49.574;11.170;2022-11-15T12:07:38;26.00;44.80
13409;DHT22;6775;49.574;11.170;2022-11-15T12:10:17;25.80;46.70
13409;DHT22;6775;49.574;11.170;2022-11-15T12:12:54;26.10;47.70
13409;DHT22;6775;49.574;11.170;2022-11-15T12:15:25;26.70;47.10
13409;DHT22;6775;49.574;11.170;2022-11-15T12:17:57;27.10;45.90
13409;DHT22;6775;49.574;11.170;2022-11-15T12:20:27;27.40;44.50
13409;DHT22;6775;49.574;11.170;2022-11-15T12:23:04;27.70;44.60
13409;DHT22;6775;49.574;11.170;2022-11-15T12:25:41;27.80;41.70
13409;DHT22;6775;49.574;11.170;2022-11-15T12:28:16;27.10;44.60
13409;DHT22;6775;49.574;11.170;2022-11-15T12:30:49;26.60;45.70
13409;DHT22;6775;49.574;11.170;2022-11-15T12:33:31;26.50;46.30
13409;DHT22;6775;49.574;11.170;2022-11-15T12:36:02;26.50;45.60
13409;DHT22;6775;49.574;11.170;2022-11-15T12:38:53;26.00;46.70
13409;DHT22;6775;49.574;11.170;2022-11-15T12:41:23;25.50;46.90
13409;DHT22;6775;49.574;11.170;2022-11-15T12:43:51;25.20;48.00
13409;DHT22;6775;49.574;11.170;2022-11-15T12:46:22;25.20;48.90
13409;DHT22;6775;49.574;11.170;2022-11-15T12:48:54;25.00;49.00
13409;DHT22;6775;49.574;11.170;2022-11-15T12:54:54;24.00;52.00
13409;DHT22;6775;49.574;11.170;2022-11-15T12:57:49;23.70;51.90
13409;DHT22;6775;49.574;11.170;2022-11-15T13:00:38;23.10;53.90
13409;DHT22;6775;49.574;11.170;2022-11-15T13:03:20;22.30;55.70
13409;DHT22;6775;49.574;11.170;2022-11-15T13:09:00;20.60;58.80
13409;DHT22;6775;49.574;11.170;2022-11-15T13:11:51;19.90;59.80
13409;DHT22;6775;49.574;11.170;2022-11-15T13:14:39;19.30;61.20
13409;DHT22;6775;49.574;11.170;2022-11-15T13:17:41;18.80;63.10
13409;DHT22;6775;49.574;11.170;2022-11-15T13:20:29;18.40;65.10
13409;DHT22;6775;49.574;11.170;2022-11-15T13:23:07;18.10;64.90
13409;DHT22;6775;49.574;11.170;2022-11-15T13:28:48;17.40;66.50
13409;DHT22;6775;49.574;11.170;2022-11-15T13:31:40;17.10;70.70
13409;DHT22;6775;49.574;11.170;2022-11-15T13:34:24;16.90;73.70
13409;DHT22;6775;49.574;11.170;2022-11-15T13:37:29;16.70;74.60
13409;DHT22;6775;49.574;11.170;2022-11-15T13:42:57;16.30;79.60
13409;DHT22;6775;49.574;11.170;2022-11-15T13:45:25;16.10;83.60
13409;DHT22;6775;49.574;11.170;2022-11-15T13:47:58;16.00;86.90
13409;DHT22;6775;49.574;11.170;2022-11-15T13:50:34;15.90;88.60
13409;DHT22;6775;49.574;11.170;2022-11-15T13:53:05;15.80;89.80
13409;DHT22;6775;49.574;11.170;2022-11-15T13:55:33;15.70;90.70
13409;DHT22;6775;49.574;11.170;2022-11-15T13:58:03;15.50;91.30
13409;DHT22;6775;49.574;11.170;2022-11-15T14:00:41;15.30;91.30
13409;DHT22;6775;49.574;11.170;2022-11-15T14:03:16;15.10;91.60
13409;DHT22;6775;49.574;11.170;2022-11-15T14:05:59;15.00;91.30
13409;DHT22;6775;49.574;11.170;2022-11-15T14:08:31;15.00;91.30
13409;DHT22;6775;49.574;11.170;2022-11-15T14:11:08;15.00;91.50
13409;DHT22;6775;49.574;11.170;2022-11-15T14:13:37;15.00;91.60
13409;DHT22;6775;49.574;11.170;2022-11-15T14:16:16;14.90;92.10
13409;DHT22;6775;49.574;11.170;2022-11-15T14:18:47;14.80;92.50
13409;DHT22;6775;49.574;11.170;2022-11-15T14:21:16;14.70;92.60
13409;DHT22;6775;49.574;11.170;2022-11-15T14:23:46;14.60;92.70
13409;DHT22;6775;49.574;11.170;2022-11-15T14:26:29;14.50;92.00
13409;DHT22;6775;49.574;11.170;2022-11-15T14:28:57;14.40;92.60
13409;DHT22;6775;49.574;11.170;2022-11-15T14:31:45;14.30;93.20
13409;DHT22;6775;49.574;11.170;2022-11-15T14:34:13;14.20;94.30
13409;DHT22;6775;49.574;11.170;2022-11-15T14:36:41;14.10;95.50
13409;DHT22;6775;49.574;11.170;2022-11-15T14:39:10;14.00;96.30
13409;DHT22;6775;49.574;11.170;2022-11-15T14:41:38;13.90;97.10
13409;DHT22;6775;49.574;11.170;2022-11-15T14:44:09;13.80;98.00
13409;DHT22;6775;49.574;11.170;2022-11-15T14:46:38;13.70;98.90
13409;DHT22;6775;49.574;11.170;2022-11-15T14:49:05;13.50;99.80
13409;DHT22;6775;49.574;11.170;2022-11-15T14:51:33;13.50;99.90
13409;DHT22;6775;49.574;11.170;2022-11-15T14:54:01;13.30;99.90
13409;DHT22;6775;49.574;11.170;2022-11-15T14:56:30;13.40;99.90
13409;DHT22;6775;49.574;11.170;2022-11-15T14:58:58;13.30;99.90
13409;DHT22;6775;49.574;11.170;2022-11-15T15:01:26;13.20;99.90
13409;DHT22;6775;49.574;11.170;2022-11-15T15:03:54;13.20;99.90
13409;DHT22;6775;49.574;11.170;2022-11-15T15:06:23;13.10;99.90
13409;DHT22;6775;49.574;11.170;2022-11-15T15:08:51;13.20;99.90
13409;DHT22;6775;49.574;11.170;2022-11-15T15:11:21;13.00;99.90
13409;DHT22;6775;49.574;11.170;2022-11-15T15:13:52;12.90;99.90
13409;DHT22;6775;49.574;11.170;2022-11-15T15:16:23;13.00;99.90
13409;DHT22;6775;49.574;11.170;2022-11-15T15:18:51;12.90;99.90
13409;DHT22;6775;49.574;11.170;2022-11-15T15:21:21;12.70;99.90
13409;DHT22;6775;49.574;11.170;2022-11-15T15:23:49;12.70;99.90
13409;DHT22;6775;49.574;11.170;2022-11-15T15:26:17;12.50;99.90
13409;DHT22;6775;49.574;11.170;2022-11-15T15:28:45;12.40;99.90
13409;DHT22;6775;49.574;11.170;2022-11-15T15:31:16;12.40;99.90
13409;DHT22;6775;49.574;11.170;2022-11-15T15:33:44;12.30;99.90
13409;DHT22;6775;49.574;11.170;2022-11-15T15:36:14;12.20;99.90
13409;DHT22;6775;49.574;11.170;2022-11-15T15:38:43;12.00;99.90
13409;DHT22;6775;49.574;11.170;2022-11-15T15:41:14;11.70;99.90
13409;DHT22;6775;49.574;11.170;2022-11-15T15:43:42;11.50;99.90
13409;DHT22;6775;49.574;11.170;2022-11-15T15:46:13;11.30;99.90
13409;DHT22;6775;49.574;11.170;2022-11-15T15:48:42;11.20;99.90
13409;DHT22;6775;49.574;11.170;2022-11-15T15:51:11;11.10;99.90
13409;DHT22;6775;49.574;11.170;2022-11-15T15:53:46;11.00;99.90
13409;DHT22;6775;49.574;11.170;2022-11-15T15:56:14;11.10;99.90
13409;DHT22;6775;49.574;11.170;2022-11-15T15:58:42;11.00;99.90
13409;DHT22;6775;49.574;11.170;2022-11-15T16:01:10;10.90;99.90
13409;DHT22;6775;49.574;11.170;2022-11-15T16:03:38;10.90;99.90
13409;DHT22;6775;49.574;11.170;2022-11-15T16:09:13;10.70;99.90
13409;DHT22;6775;49.574;11.170;2022-11-15T16:11:45;10.60;99.90
13409;DHT22;6775;49.574;11.170;2022-11-15T16:14:13;10.50;99.90
13409;DHT22;6775;49.574;11.170;2022-11-15T16:16:41;10.20;99.90
13409;DHT22;6775;49.574;11.170;2022-11-15T16:19:10;10.00;99.90
13409;DHT22;6775;49.574;11.170;2022-11-15T16:21:38;9.90;99.90
13409;DHT22;6775;49.574;11.170;2022-11-15T16:24:06;9.70;99.90
13409;DHT22;6775;49.574;11.170;2022-11-15T16:26:35;9.60;99.90
13409;DHT22;6775;49.574;11.170;2022-11-15T16:29:04;9.50;99.90
13409;DHT22;6775;49.574;11.170;2022-11-15T16:31:33;9.50;99.90
13409;DHT22;6775;49.574;11.170;2022-11-15T16:34:01;9.50;99.90
13409;DHT22;6775;49.574;11.170;2022-11-15T16:36:30;9.50;99.90
13409;DHT22;6775;49.574;11.170;2022-11-15T16:39:00;9.50;99.90